sensor_id;sensor_type;location;lat;lon;timestamp;pressure;altitude;pressure_sealevel;temperature;humidity
64908;BME280;51412;52.236;5.188;2022-07-03T00:01:25;101741.34;;;18.87;68.03
64908;BME280;51412;52.236;5.188;2022-07-03T00:03:52;101734.09;;;18.80;68.52
64908;BME280;51412;52.236;5.188;2022-07-03T00:06:20;101747.63;;;18.73;68.93
64908;BME280;51412;52.236;5.188;2022-07-03T00:08:47;101753.41;;;18.68;69.17
64908;BME280;51412;52.236;5.188;2022-07-03T00:11:14;101749.25;;;18.63;69.41
64908;BME280;51412;52.236;5.188;2022-07-03T00:13:41;101745.41;;;18.61;69.03
64908;BME280;51412;52.236;5.188;2022-07-03T00:16:07;101730.81;;;18.58;68.85
64908;BME280;51412;52.236;5.188;2022-07-03T00:18:34;101737.34;;;18.57;69.04
64908;BME280;51412;52.236;5.188;2022-07-03T00:21:02;101729.28;;;18.54;69.30
64908;BME280;51412;52.236;5.188;2022-07-03T00:23:38;101730.88;;;18.51;69.68
64908;BME280;51412;52.236;5.188;2022-07-03T00:26:06;101740.91;;;18.47;69.48
64908;BME280;51412;52.236;5.188;2022-07-03T00:28:33;101738.22;;;18.43;69.51
64908;BME280;51412;52.236;5.188;2022-07-03T00:31:01;101739.38;;;18.39;69.89
64908;BME280;51412;52.236;5.188;2022-07-03T00:33:30;101738.66;;;18.34;69.68
64908;BME280;51412;52.236;5.188;2022-07-03T00:36:00;101737.91;;;18.30;69.59
64908;BME280;51412;52.236;5.188;2022-07-03T00:38:27;101739.09;;;18.26;69.68
64908;BME280;51412;52.236;5.188;2022-07-03T00:40:55;101740.25;;;18.25;69.69
64908;BME280;51412;52.236;5.188;2022-07-03T00:43:25;101735.66;;;18.22;69.96
64908;BME280;51412;52.236;5.188;2022-07-03T00:45:53;101729.13;;;18.19;69.95
64908;BME280;51412;52.236;5.188;2022-07-03T00:48:20;101729.16;;;18.15;69.89
64908;BME280;51412;52.236;5.188;2022-07-03T00:50:48;101728.00;;;18.13;69.99
64908;BME280;51412;52.236;5.188;2022-07-03T00:53:18;101726.50;;;18.05;70.30
64908;BME280;51412;52.236;5.188;2022-07-03T00:55:47;101727.31;;;18.01;70.20
64908;BME280;51412;52.236;5.188;2022-07-03T00:58:17;101719.66;;;17.96;70.53
64908;BME280;51412;52.236;5.188;2022-07-03T01:00:45;101719.66;;;17.96;70.45
64908;BME280;51412;52.236;5.188;2022-07-03T01:03:15;101715.44;;;17.92;70.49
64908;BME280;51412;52.236;5.188;2022-07-03T01:05:43;101723.50;;;17.88;70.72
64908;BME280;51412;52.236;5.188;2022-07-03T01:08:17;101717.38;;;17.84;70.45
64908;BME280;51412;52.236;5.188;2022-07-03T01:10:51;101713.53;;;17.78;71.12
64908;BME280;51412;52.236;5.188;2022-07-03T01:13:32;101727.78;;;17.78;71.11
64908;BME280;51412;52.236;5.188;2022-07-03T01:16:06;101722.03;;;17.73;71.07
64908;BME280;51412;52.236;5.188;2022-07-03T01:18:40;101721.66;;;17.71;71.11
64908;BME280;51412;52.236;5.188;2022-07-03T01:21:16;101725.13;;;17.67;71.22
64908;BME280;51412;52.236;5.188;2022-07-03T01:24:17;101721.69;;;17.63;71.61
64908;BME280;51412;52.236;5.188;2022-07-03T01:26:59;101713.22;;;17.61;71.15
64908;BME280;51412;52.236;5.188;2022-07-03T01:29:35;101716.69;;;17.58;71.00
64908;BME280;51412;52.236;5.188;2022-07-03T01:32:05;101712.06;;;17.59;71.31
64908;BME280;51412;52.236;5.188;2022-07-03T01:34:34;101704.41;;;17.57;71.43
64908;BME280;51412;52.236;5.188;2022-07-03T01:37:02;101701.31;;;17.59;71.11
64908;BME280;51412;52.236;5.188;2022-07-03T01:39:30;101702.88;;;17.60;70.93
64908;BME280;51412;52.236;5.188;2022-07-03T01:41:59;101699.81;;;17.58;70.98
64908;BME280;51412;52.236;5.188;2022-07-03T01:44:27;101694.44;;;17.54;70.72
64908;BME280;51412;52.236;5.188;2022-07-03T01:46:56;101699.06;;;17.46;70.92
64908;BME280;51412;52.236;5.188;2022-07-03T01:49:25;101702.53;;;17.43;71.27
64908;BME280;51412;52.236;5.188;2022-07-03T01:51:53;101704.09;;;17.41;71.36
64908;BME280;51412;52.236;5.188;2022-07-03T01:54:24;101697.94;;;17.37;73.00
64908;BME280;51412;52.236;5.188;2022-07-03T01:56:51;101705.25;;;17.36;72.28
64908;BME280;51412;52.236;5.188;2022-07-03T01:59:18;101696.81;;;17.34;72.03
64908;BME280;51412;52.236;5.188;2022-07-03T02:01:50;101692.56;;;17.33;72.14
64908;BME280;51412;52.236;5.188;2022-07-03T02:04:23;101689.50;;;17.34;71.62
64908;BME280;51412;52.236;5.188;2022-07-03T02:06:55;101686.06;;;17.34;71.58
64908;BME280;51412;52.236;5.188;2022-07-03T02:09:33;101691.44;;;17.38;73.30
64908;BME280;51412;52.236;5.188;2022-07-03T02:12:02;101698.72;;;17.41;72.99
64908;BME280;51412;52.236;5.188;2022-07-03T02:14:36;101693.72;;;17.39;72.01
64908;BME280;51412;52.236;5.188;2022-07-03T02:17:15;101693.72;;;17.39;71.59
64908;BME280;51412;52.236;5.188;2022-07-03T02:19:44;101689.50;;;17.34;71.68
64908;BME280;51412;52.236;5.188;2022-07-03T02:22:15;101699.13;;;17.32;71.80
64908;BME280;51412;52.236;5.188;2022-07-03T02:24:45;101686.06;;;17.30;72.18
64908;BME280;51412;52.236;5.188;2022-07-03T02:27:15;101697.59;;;17.31;72.06
64908;BME280;51412;52.236;5.188;2022-07-03T02:29:47;101696.81;;;17.30;71.80
64908;BME280;51412;52.236;5.188;2022-07-03T02:32:19;101690.69;;;17.30;71.84
64908;BME280;51412;52.236;5.188;2022-07-03T02:34:56;101687.22;;;17.29;71.58
64908;BME280;51412;52.236;5.188;2022-07-03T02:37:28;101693.34;;;17.37;71.39
64908;BME280;51412;52.236;5.188;2022-07-03T02:40:01;101693.34;;;17.41;71.18
64908;BME280;51412;52.236;5.188;2022-07-03T02:42:32;101696.03;;;17.44;71.13
64908;BME280;51412;52.236;5.188;2022-07-03T02:45:04;101692.94;;;17.49;70.35
64908;BME280;51412;52.236;5.188;2022-07-03T02:47:37;101687.13;;;17.58;70.29
64908;BME280;51412;52.236;5.188;2022-07-03T02:50:07;101689.78;;;17.65;69.79
64908;BME280;51412;52.236;5.188;2022-07-03T02:52:44;101689.38;;;17.71;68.67
64908;BME280;51412;52.236;5.188;2022-07-03T02:55:25;101688.59;;;17.74;68.04
64908;BME280;51412;52.236;5.188;2022-07-03T02:57:57;101683.97;;;17.78;68.08
64908;BME280;51412;52.236;5.188;2022-07-03T03:00:33;101693.91;;;17.84;67.93
64908;BME280;51412;52.236;5.188;2022-07-03T03:03:02;101684.69;;;17.89;67.58
64908;BME280;51412;52.236;5.188;2022-07-03T03:05:34;101684.72;;;17.93;67.51
64908;BME280;51412;52.236;5.188;2022-07-03T03:08:08;101677.41;;;17.97;68.16
64908;BME280;51412;52.236;5.188;2022-07-03T03:10:37;101678.50;;;18.03;67.50
64908;BME280;51412;52.236;5.188;2022-07-03T03:13:05;101677.69;;;18.06;67.48
64908;BME280;51412;52.236;5.188;2022-07-03T03:15:34;101681.94;;;18.07;67.25
64908;BME280;51412;52.236;5.188;2022-07-03T03:18:03;101684.22;;;18.09;67.43
64908;BME280;51412;52.236;5.188;2022-07-03T03:20:31;101682.72;;;18.08;67.24
64908;BME280;51412;52.236;5.188;2022-07-03T03:23:09;101679.25;;;18.07;67.77
64908;BME280;51412;52.236;5.188;2022-07-03T03:25:37;101675.78;;;18.07;67.54
64908;BME280;51412;52.236;5.188;2022-07-03T03:28:04;101674.25;;;18.06;67.45
64908;BME280;51412;52.236;5.188;2022-07-03T03:30:30;101680.44;;;18.03;67.25
64908;BME280;51412;52.236;5.188;2022-07-03T03:32:58;101688.13;;;18.00;66.91
64908;BME280;51412;52.236;5.188;2022-07-03T03:35:25;101685.06;;;17.98;67.54
64908;BME280;51412;52.236;5.188;2022-07-03T03:37:51;101688.16;;;17.97;67.89
64908;BME280;51412;52.236;5.188;2022-07-03T03:40:19;101677.41;;;17.93;68.08
64908;BME280;51412;52.236;5.188;2022-07-03T03:42:45;101688.91;;;17.97;68.52
64908;BME280;51412;52.236;5.188;2022-07-03T03:45:12;101689.25;;;17.99;68.11
64908;BME280;51412;52.236;5.188;2022-07-03T03:47:38;101683.50;;;18.01;68.07
64908;BME280;51412;52.236;5.188;2022-07-03T03:50:07;101685.81;;;18.03;68.59
64908;BME280;51412;52.236;5.188;2022-07-03T03:52:34;101680.78;;;18.05;68.55
64908;BME280;51412;52.236;5.188;2022-07-03T03:55:01;101681.19;;;18.07;68.55
64908;BME280;51412;52.236;5.188;2022-07-03T03:57:27;101681.13;;;18.10;68.71
64908;BME280;51412;52.236;5.188;2022-07-03T03:59:54;101688.03;;;18.15;68.69
64908;BME280;51412;52.236;5.188;2022-07-03T04:02:21;101694.56;;;18.14;68.50
64908;BME280;51412;52.236;5.188;2022-07-03T04:04:48;101688.78;;;18.15;68.74
64908;BME280;51412;52.236;5.188;2022-07-03T04:07:16;101688.78;;;18.19;69.08
64908;BME280;51412;52.236;5.188;2022-07-03T04:09:42;101684.16;;;18.20;68.91
64908;BME280;51412;52.236;5.188;2022-07-03T04:12:10;101683.38;;;18.23;68.70
64908;BME280;51412;52.236;5.188;2022-07-03T04:14:37;101692.59;;;18.25;68.82
64908;BME280;51412;52.236;5.188;2022-07-03T04:17:04;101691.81;;;18.25;68.72
64908;BME280;51412;52.236;5.188;2022-07-03T04:19:31;101689.13;;;18.21;68.68
64908;BME280;51412;52.236;5.188;2022-07-03T04:21:57;101689.13;;;18.25;68.76
64908;BME280;51412;52.236;5.188;2022-07-03T04:24:25;101697.97;;;18.25;68.59
64908;BME280;51412;52.236;5.188;2022-07-03T04:26:52;101691.06;;;18.24;68.58
64908;BME280;51412;52.236;5.188;2022-07-03T04:29:18;101684.13;;;18.27;68.99
64908;BME280;51412;52.236;5.188;2022-07-03T04:31:45;101681.78;;;18.29;68.61
64908;BME280;51412;52.236;5.188;2022-07-03T04:34:11;101680.25;;;18.31;68.97
64908;BME280;51412;52.236;5.188;2022-07-03T04:36:38;101684.81;;;18.34;68.69
64908;BME280;51412;52.236;5.188;2022-07-03T04:39:05;101687.91;;;18.37;68.13
64908;BME280;51412;52.236;5.188;2022-07-03T04:41:32;101692.53;;;18.32;69.02
64908;BME280;51412;52.236;5.188;2022-07-03T04:43:59;101699.88;;;18.28;69.02
64908;BME280;51412;52.236;5.188;2022-07-03T04:46:25;101706.06;;;18.25;69.05
64908;BME280;51412;52.236;5.188;2022-07-03T04:48:52;101697.19;;;18.28;69.32
64908;BME280;51412;52.236;5.188;2022-07-03T04:51:18;101692.19;;;18.27;69.15
64908;BME280;51412;52.236;5.188;2022-07-03T04:53:45;101692.53;;;18.36;69.15
64908;BME280;51412;52.236;5.188;2022-07-03T04:56:11;101699.81;;;18.35;69.33
64908;BME280;51412;52.236;5.188;2022-07-03T04:58:39;101695.16;;;18.40;69.92
64908;BME280;51412;52.236;5.188;2022-07-03T05:01:06;101696.72;;;18.41;69.78
64908;BME280;51412;52.236;5.188;2022-07-03T05:03:32;101703.97;;;18.44;69.63
64908;BME280;51412;52.236;5.188;2022-07-03T05:05:59;101707.81;;;18.46;69.57
64908;BME280;51412;52.236;5.188;2022-07-03T05:08:26;101701.22;;;18.55;70.20
64908;BME280;51412;52.236;5.188;2022-07-03T05:10:53;101714.25;;;18.63;69.64
64908;BME280;51412;52.236;5.188;2022-07-03T05:13:19;101708.03;;;18.70;69.04
64908;BME280;51412;52.236;5.188;2022-07-03T05:15:47;101713.75;;;18.76;68.91
64908;BME280;51412;52.236;5.188;2022-07-03T05:18:14;101709.91;;;18.73;69.45
64908;BME280;51412;52.236;5.188;2022-07-03T05:20:40;101715.22;;;18.84;69.36
64908;BME280;51412;52.236;5.188;2022-07-03T05:23:07;101712.50;;;18.88;69.40
64908;BME280;51412;52.236;5.188;2022-07-03T05:25:33;101710.56;;;18.92;68.94
64908;BME280;51412;52.236;5.188;2022-07-03T05:28:00;101710.56;;;18.92;68.98
64908;BME280;51412;52.236;5.188;2022-07-03T05:30:27;101715.91;;;18.95;68.85
64908;BME280;51412;52.236;5.188;2022-07-03T05:32:55;101716.59;;;19.03;69.11
64908;BME280;51412;52.236;5.188;2022-07-03T05:35:22;101714.63;;;19.11;68.75
64908;BME280;51412;52.236;5.188;2022-07-03T05:37:48;101719.50;;;19.23;68.58
64908;BME280;51412;52.236;5.188;2022-07-03T05:40:15;101730.56;;;19.32;68.26
64908;BME280;51412;52.236;5.188;2022-07-03T05:42:42;101717.75;;;19.40;67.66
64908;BME280;51412;52.236;5.188;2022-07-03T05:45:09;101714.59;;;19.49;67.87
64908;BME280;51412;52.236;5.188;2022-07-03T05:47:36;101718.38;;;19.55;67.72
64908;BME280;51412;52.236;5.188;2022-07-03T05:50:05;101729.78;;;19.70;67.01
64908;BME280;51412;52.236;5.188;2022-07-03T05:52:31;101732.00;;;19.75;66.98
64908;BME280;51412;52.236;5.188;2022-07-03T05:54:58;101721.94;;;19.79;66.73
64908;BME280;51412;52.236;5.188;2022-07-03T05:57:24;101722.63;;;19.87;66.37
64908;BME280;51412;52.236;5.188;2022-07-03T05:59:51;101742.25;;;19.91;65.92
64908;BME280;51412;52.236;5.188;2022-07-03T06:02:17;101725.34;;;19.87;66.30
64908;BME280;51412;52.236;5.188;2022-07-03T06:04:44;101726.09;;;19.88;66.46
64908;BME280;51412;52.236;5.188;2022-07-03T06:07:12;101726.06;;;19.91;66.35
64908;BME280;51412;52.236;5.188;2022-07-03T06:09:38;101718.34;;;19.93;66.23
64908;BME280;51412;52.236;5.188;2022-07-03T06:12:05;101729.84;;;19.97;66.54
64908;BME280;51412;52.236;5.188;2022-07-03T06:14:32;101729.75;;;20.05;66.19
64908;BME280;51412;52.236;5.188;2022-07-03T06:16:58;101727.63;;;20.16;66.27
64908;BME280;51412;52.236;5.188;2022-07-03T06:19:25;101726.75;;;20.26;65.83
64908;BME280;51412;52.236;5.188;2022-07-03T06:21:51;101736.25;;;20.34;65.91
64908;BME280;51412;52.236;5.188;2022-07-03T06:24:19;101731.16;;;20.40;65.54
64908;BME280;51412;52.236;5.188;2022-07-03T06:26:46;101742.03;;;20.36;65.22
64908;BME280;51412;52.236;5.188;2022-07-03T06:29:12;101744.75;;;20.33;64.90
64908;BME280;51412;52.236;5.188;2022-07-03T06:31:39;101741.81;;;20.24;64.96
64908;BME280;51412;52.236;5.188;2022-07-03T06:34:05;101742.31;;;20.15;65.14
64908;BME280;51412;52.236;5.188;2022-07-03T06:36:32;101743.50;;;20.14;65.24
64908;BME280;51412;52.236;5.188;2022-07-03T06:38:58;101745.81;;;20.12;65.21
64908;BME280;51412;52.236;5.188;2022-07-03T06:41:26;101744.66;;;20.13;65.07
64908;BME280;51412;52.236;5.188;2022-07-03T06:43:53;101749.44;;;20.01;65.28
64908;BME280;51412;52.236;5.188;2022-07-03T06:46:19;101742.56;;;19.97;65.74
64908;BME280;51412;52.236;5.188;2022-07-03T06:48:46;101752.63;;;19.93;65.58
64908;BME280;51412;52.236;5.188;2022-07-03T06:51:12;101753.53;;;19.82;65.54
64908;BME280;51412;52.236;5.188;2022-07-03T06:53:39;101748.88;;;19.87;65.32
64908;BME280;51412;52.236;5.188;2022-07-03T06:56:05;101758.13;;;19.85;66.39
64908;BME280;51412;52.236;5.188;2022-07-03T06:58:33;101754.16;;;19.94;65.14
64908;BME280;51412;52.236;5.188;2022-07-03T07:01:00;101738.72;;;19.94;65.08
64908;BME280;51412;52.236;5.188;2022-07-03T07:03:26;101743.25;;;20.01;64.98
64908;BME280;51412;52.236;5.188;2022-07-03T07:05:53;101742.06;;;20.06;65.06
64908;BME280;51412;52.236;5.188;2022-07-03T07:08:19;101736.22;;;20.11;64.55
64908;BME280;51412;52.236;5.188;2022-07-03T07:10:46;101739.56;;;20.18;64.25
64908;BME280;51412;52.236;5.188;2022-07-03T07:13:12;101731.06;;;20.20;63.96
64908;BME280;51412;52.236;5.188;2022-07-03T07:15:40;101737.53;;;20.26;63.74
64908;BME280;51412;52.236;5.188;2022-07-03T07:18:07;101738.19;;;20.34;63.76
64908;BME280;51412;52.236;5.188;2022-07-03T07:20:33;101735.81;;;20.40;63.38
64908;BME280;51412;52.236;5.188;2022-07-03T07:23:00;101741.00;;;20.54;63.70
64908;BME280;51412;52.236;5.188;2022-07-03T07:25:26;101743.09;;;20.66;63.74
64908;BME280;51412;52.236;5.188;2022-07-03T07:27:53;101738.69;;;20.80;62.94
64908;BME280;51412;52.236;5.188;2022-07-03T07:30:19;101738.19;;;20.85;62.12
64908;BME280;51412;52.236;5.188;2022-07-03T07:32:47;101739.72;;;20.86;61.66
64908;BME280;51412;52.236;5.188;2022-07-03T07:35:14;101737.31;;;20.92;60.87
64908;BME280;51412;52.236;5.188;2022-07-03T07:37:40;101744.13;;;21.00;60.46
64908;BME280;51412;52.236;5.188;2022-07-03T07:40:08;101750.06;;;21.15;60.76
64908;BME280;51412;52.236;5.188;2022-07-03T07:42:35;101751.44;;;21.23;60.00
64908;BME280;51412;52.236;5.188;2022-07-03T07:45:01;101750.47;;;21.33;60.05
64908;BME280;51412;52.236;5.188;2022-07-03T07:47:28;101753.34;;;21.46;59.58
64908;BME280;51412;52.236;5.188;2022-07-03T07:49:56;101760.91;;;21.55;59.43
64908;BME280;51412;52.236;5.188;2022-07-03T07:52:22;101760.38;;;21.64;59.24
64908;BME280;51412;52.236;5.188;2022-07-03T07:54:50;101764.72;;;21.78;58.88
64908;BME280;51412;52.236;5.188;2022-07-03T07:57:17;101760.25;;;21.87;58.95
64908;BME280;51412;52.236;5.188;2022-07-03T07:59:43;101768.50;;;22.00;58.71
64908;BME280;51412;52.236;5.188;2022-07-03T08:02:10;101766.00;;;22.10;57.82
64908;BME280;51412;52.236;5.188;2022-07-03T08:04:53;101769.28;;;22.17;57.83
64908;BME280;51412;52.236;5.188;2022-07-03T08:07:39;101774.16;;;22.26;57.43
64908;BME280;51412;52.236;5.188;2022-07-03T08:10:06;101769.84;;;22.29;57.81
64908;BME280;51412;52.236;5.188;2022-07-03T08:12:32;101781.63;;;22.39;57.92
64908;BME280;51412;52.236;5.188;2022-07-03T08:14:59;101775.97;;;22.49;57.49
64908;BME280;51412;52.236;5.188;2022-07-03T08:17:25;101783.34;;;22.65;57.37
64908;BME280;51412;52.236;5.188;2022-07-03T08:19:52;101779.28;;;22.74;56.75
64908;BME280;51412;52.236;5.188;2022-07-03T08:22:18;101777.00;;;22.72;56.48
64908;BME280;51412;52.236;5.188;2022-07-03T08:24:46;101783.16;;;22.73;56.40
64908;BME280;51412;52.236;5.188;2022-07-03T08:27:12;101785.38;;;22.78;57.35
64908;BME280;51412;52.236;5.188;2022-07-03T08:29:39;101784.63;;;22.77;56.85
64908;BME280;51412;52.236;5.188;2022-07-03T08:32:06;101785.13;;;22.72;56.52
64908;BME280;51412;52.236;5.188;2022-07-03T08:34:33;101779.59;;;22.76;56.56
64908;BME280;51412;52.236;5.188;2022-07-03T08:37:00;101782.22;;;22.79;56.61
64908;BME280;51412;52.236;5.188;2022-07-03T08:39:26;101781.38;;;22.82;56.49
64908;BME280;51412;52.236;5.188;2022-07-03T08:41:55;101773.16;;;22.86;55.82
64908;BME280;51412;52.236;5.188;2022-07-03T08:44:24;101780.00;;;22.91;55.91
64908;BME280;51412;52.236;5.188;2022-07-03T08:46:51;101775.88;;;22.86;55.82
64908;BME280;51412;52.236;5.188;2022-07-03T08:49:18;101776.06;;;22.79;56.02
64908;BME280;51412;52.236;5.188;2022-07-03T08:51:45;101765.44;;;23.01;56.25
64908;BME280;51412;52.236;5.188;2022-07-03T08:54:12;101775.13;;;23.31;54.97
64908;BME280;51412;52.236;5.188;2022-07-03T08:56:39;101779.34;;;23.62;54.84
64908;BME280;51412;52.236;5.188;2022-07-03T08:59:08;101764.06;;;23.81;54.40
64908;BME280;51412;52.236;5.188;2022-07-03T09:01:35;101778.97;;;23.89;54.02
64908;BME280;51412;52.236;5.188;2022-07-03T09:04:08;101780.56;;;23.74;53.50
64908;BME280;51412;52.236;5.188;2022-07-03T09:06:38;101769.13;;;23.53;54.26
64908;BME280;51412;52.236;5.188;2022-07-03T09:09:06;101778.63;;;23.45;54.49
64908;BME280;51412;52.236;5.188;2022-07-03T09:11:33;101775.81;;;23.19;55.16
64908;BME280;51412;52.236;5.188;2022-07-03T09:13:59;101770.09;;;23.00;55.82
64908;BME280;51412;52.236;5.188;2022-07-03T09:16:29;101767.75;;;22.86;56.71
64908;BME280;51412;52.236;5.188;2022-07-03T09:18:55;101783.34;;;22.65;57.60
64908;BME280;51412;52.236;5.188;2022-07-03T09:21:22;101781.81;;;22.48;57.58
64908;BME280;51412;52.236;5.188;2022-07-03T09:23:49;101778.63;;;22.33;57.88
64908;BME280;51412;52.236;5.188;2022-07-03T09:26:17;101783.59;;;22.18;57.80
64908;BME280;51412;52.236;5.188;2022-07-03T09:28:47;101791.88;;;22.11;58.29
64908;BME280;51412;52.236;5.188;2022-07-03T09:31:17;101788.47;;;22.07;58.10
64908;BME280;51412;52.236;5.188;2022-07-03T09:33:50;101788.34;;;22.14;58.97
64908;BME280;51412;52.236;5.188;2022-07-03T09:36:17;101777.97;;;22.29;58.23
64908;BME280;51412;52.236;5.188;2022-07-03T09:38:44;101775.09;;;22.36;58.10
64908;BME280;51412;52.236;5.188;2022-07-03T09:41:11;101773.00;;;22.44;58.96
64908;BME280;51412;52.236;5.188;2022-07-03T09:43:41;101771.22;;;22.53;58.06
64908;BME280;51412;52.236;5.188;2022-07-03T09:46:08;101777.41;;;22.54;58.51
64908;BME280;51412;52.236;5.188;2022-07-03T09:48:36;101782.56;;;22.65;58.30
64908;BME280;51412;52.236;5.188;2022-07-03T09:51:26;101780.63;;;22.65;56.50
64908;BME280;51412;52.236;5.188;2022-07-03T09:53:55;101771.19;;;22.86;57.02
64908;BME280;51412;52.236;5.188;2022-07-03T09:56:22;101776.69;;;23.16;56.00
64908;BME280;51412;52.236;5.188;2022-07-03T09:59:00;101789.09;;;23.46;55.55
64908;BME280;51412;52.236;5.188;2022-07-03T10:01:27;101784.31;;;23.50;55.17
64908;BME280;51412;52.236;5.188;2022-07-03T10:03:54;101785.63;;;23.59;55.41
64908;BME280;51412;52.236;5.188;2022-07-03T10:06:20;101786.19;;;23.66;55.83
64908;BME280;51412;52.236;5.188;2022-07-03T10:08:48;101787.38;;;23.65;55.17
64908;BME280;51412;52.236;5.188;2022-07-03T10:11:16;101774.88;;;23.55;55.72
64908;BME280;51412;52.236;5.188;2022-07-03T10:13:43;101787.03;;;23.50;55.14
64908;BME280;51412;52.236;5.188;2022-07-03T10:16:10;101778.22;;;23.46;55.30
64908;BME280;51412;52.236;5.188;2022-07-03T10:18:39;101781.56;;;23.37;55.59
64908;BME280;51412;52.236;5.188;2022-07-03T10:21:10;101782.84;;;23.33;55.24
64908;BME280;51412;52.236;5.188;2022-07-03T10:23:39;101784.59;;;23.40;55.34
64908;BME280;51412;52.236;5.188;2022-07-03T10:26:09;101767.56;;;23.39;54.40
64908;BME280;51412;52.236;5.188;2022-07-03T10:28:36;101777.75;;;23.35;54.91
64908;BME280;51412;52.236;5.188;2022-07-03T10:31:03;101781.41;;;23.28;54.67
64908;BME280;51412;52.236;5.188;2022-07-03T10:33:30;101787.88;;;23.18;54.93
64908;BME280;51412;52.236;5.188;2022-07-03T10:36:01;101781.50;;;23.08;55.26
64908;BME280;51412;52.236;5.188;2022-07-03T10:38:38;101784.09;;;22.99;55.42
64908;BME280;51412;52.236;5.188;2022-07-03T10:41:12;101796.03;;;22.85;56.14
64908;BME280;51412;52.236;5.188;2022-07-03T10:43:58;101808.16;;;22.64;56.84
64908;BME280;51412;52.236;5.188;2022-07-03T10:46:42;101801.00;;;22.37;59.04
64908;BME280;51412;52.236;5.188;2022-07-03T10:49:09;101816.75;;;22.06;60.81
64908;BME280;51412;52.236;5.188;2022-07-03T10:51:53;101820.78;;;21.77;63.47
64908;BME280;51412;52.236;5.188;2022-07-03T10:54:21;101828.88;;;21.57;64.95
64908;BME280;51412;52.236;5.188;2022-07-03T10:57:14;101841.66;;;21.33;66.35
64908;BME280;51412;52.236;5.188;2022-07-03T11:00:14;101848.59;;;21.10;67.71
64908;BME280;51412;52.236;5.188;2022-07-03T11:02:43;101853.44;;;20.95;67.45
64908;BME280;51412;52.236;5.188;2022-07-03T11:05:25;101843.78;;;20.71;69.09
64908;BME280;51412;52.236;5.188;2022-07-03T11:08:10;101843.50;;;20.61;72.69
64908;BME280;51412;52.236;5.188;2022-07-03T11:10:42;101844.31;;;20.58;71.58
64908;BME280;51412;52.236;5.188;2022-07-03T11:13:13;101843.25;;;20.52;72.55
64908;BME280;51412;52.236;5.188;2022-07-03T11:15:43;101838.25;;;20.50;73.05
64908;BME280;51412;52.236;5.188;2022-07-03T11:18:24;101843.66;;;20.50;75.01
64908;BME280;51412;52.236;5.188;2022-07-03T11:24:05;101819.31;;;20.81;75.52
64908;BME280;51412;52.236;5.188;2022-07-03T11:26:35;101825.50;;;21.06;73.30
64908;BME280;51412;52.236;5.188;2022-07-03T11:29:03;101823.13;;;21.31;73.26
64908;BME280;51412;52.236;5.188;2022-07-03T11:31:30;101820.00;;;21.57;71.75
64908;BME280;51412;52.236;5.188;2022-07-03T11:33:58;101817.50;;;21.86;70.56
64908;BME280;51412;52.236;5.188;2022-07-03T11:36:25;101820.13;;;22.10;70.67
64908;BME280;51412;52.236;5.188;2022-07-03T11:39:03;101804.81;;;22.40;69.64
64908;BME280;51412;52.236;5.188;2022-07-03T11:41:42;101811.19;;;22.66;68.70
64908;BME280;51412;52.236;5.188;2022-07-03T11:44:18;101805.69;;;22.86;66.55
64908;BME280;51412;52.236;5.188;2022-07-03T11:46:51;101810.94;;;23.10;66.78
64908;BME280;51412;52.236;5.188;2022-07-03T11:49:20;101804.53;;;23.33;65.24
64908;BME280;51412;52.236;5.188;2022-07-03T11:52:02;101806.03;;;23.50;64.29
64908;BME280;51412;52.236;5.188;2022-07-03T11:54:31;101798.56;;;23.67;63.17
64908;BME280;51412;52.236;5.188;2022-07-03T11:56:59;101802.88;;;23.52;63.20
64908;BME280;51412;52.236;5.188;2022-07-03T11:59:27;101807.50;;;23.38;63.04
64908;BME280;51412;52.236;5.188;2022-07-03T12:02:01;101807.63;;;23.18;63.20
64908;BME280;51412;52.236;5.188;2022-07-03T12:04:27;101814.03;;;23.08;62.77
64908;BME280;51412;52.236;5.188;2022-07-03T12:06:57;101808.56;;;22.95;62.41
64908;BME280;51412;52.236;5.188;2022-07-03T12:09:26;101820.91;;;22.80;62.52
64908;BME280;51412;52.236;5.188;2022-07-03T12:11:55;101823.72;;;22.60;61.89
64908;BME280;51412;52.236;5.188;2022-07-03T12:14:38;101830.38;;;22.39;61.97
64908;BME280;51412;52.236;5.188;2022-07-03T12:17:05;101831.44;;;22.25;63.04
64908;BME280;51412;52.236;5.188;2022-07-03T12:19:32;101831.09;;;22.02;63.40
64908;BME280;51412;52.236;5.188;2022-07-03T12:21:59;101839.00;;;21.93;62.96
64908;BME280;51412;52.236;5.188;2022-07-03T12:24:26;101845.47;;;21.79;64.38
64908;BME280;51412;52.236;5.188;2022-07-03T12:26:53;101851.44;;;21.70;65.00
64908;BME280;51412;52.236;5.188;2022-07-03T12:29:19;101857.94;;;21.53;64.86
64908;BME280;51412;52.236;5.188;2022-07-03T12:31:48;101857.00;;;21.40;66.23
64908;BME280;51412;52.236;5.188;2022-07-03T12:34:16;101854.94;;;21.24;67.27
64908;BME280;51412;52.236;5.188;2022-07-03T12:36:54;101847.41;;;21.11;67.88
64908;BME280;51412;52.236;5.188;2022-07-03T12:39:21;101835.19;;;21.03;68.43
64908;BME280;51412;52.236;5.188;2022-07-03T12:41:47;101839.94;;;20.95;68.00
64908;BME280;51412;52.236;5.188;2022-07-03T12:44:14;101827.25;;;20.92;68.91
64908;BME280;51412;52.236;5.188;2022-07-03T12:46:46;101834.53;;;20.95;68.55
64908;BME280;51412;52.236;5.188;2022-07-03T12:49:15;101830.66;;;20.96;68.25
64908;BME280;51412;52.236;5.188;2022-07-03T12:51:43;101824.44;;;20.99;68.63
64908;BME280;51412;52.236;5.188;2022-07-03T12:54:11;101827.38;;;21.09;67.78
64908;BME280;51412;52.236;5.188;2022-07-03T12:56:39;101823.38;;;21.17;67.08
64908;BME280;51412;52.236;5.188;2022-07-03T12:59:05;101823.75;;;21.19;67.64
64908;BME280;51412;52.236;5.188;2022-07-03T13:01:44;101831.66;;;21.30;65.86
64908;BME280;51412;52.236;5.188;2022-07-03T13:04:12;101822.53;;;21.44;64.54